Terminal Aerodrome Forecast
Issued by NWS

Home | Current Version | Previous Version | Text Only | Print | Product List | Glossary On
Versions: 1 2 3 4 5 6 7 8 9 10 11 12 13 14 15 16 17 18 19 20 21 22 23 24 25 26 27 28 29 30 31 32 33 34
000
FTUS43 KGRB 160628 AAA
TAFATW
TAF AMD
KATW 160628Z 1606/1706 36008KT P6SM -SHSN SCT015 BKN035
      TEMPO 1608/1610 4SM -SHSN BKN015
     FM161100 35007KT P6SM -SHSN SCT015 BKN040
     FM161600 33007KT P6SM BKN050
     FM170100 29006KT P6SM SCT250=

USA.gov is the U.S. government's official web portal to all federal, state and local government web resources and services.